Time;durP1;ratioP1;P1;durP2;ratioP2;P2;SDS_P1;SDS_P2;PMS_P1;PMS_P2;Temp;Humidity;BMP_temperature;BMP_pressure;BME280_temperature;BME280_humidity;BME280_pressure;Samples;Min_cycle;Max_cycle;Signal;HPM_P1;HPM_P2
2022/05/06 00:01:00;;;;;;;;;;;;;;;;;;5134200;28;19912;-80
2022/05/06 00:03:26;;;;;;;;;;;;;;;;;;5133634;28;19930;-80
2022/05/06 00:05:52;;;;;;;;;;;;;;;;;;5133830;28;19908;-80
2022/05/06 00:08:18;;;;;;;;;;;;;;;;;;5133807;28;19972;-80
2022/05/06 00:10:44;;;;;;;;;;;;;;;;;;5133129;27;19915;-80
2022/05/06 00:13:10;;;;;;;;;;;;;;;;;;5136599;27;19907;-80
2022/05/06 00:15:36;;;;;;;;;;;;;;;;;;5136882;27;20390;-80
2022/05/06 00:18:02;;;;;;;;;;;;;;;;;;5119732;27;19907;-80
2022/05/06 00:20:28;;;;;;;;;;;;;;;;;;5137285;27;20309;-80
2022/05/06 00:22:54;;;;;;;;;;;;;;;;;;5138110;27;20267;-80
2022/05/06 00:25:20;;;;;;;;;;;;;;;;;;5137764;27;19914;-80
2022/05/06 00:27:45;;;;;;;;;;;;;;;;;;5136794;27;20177;-80
2022/05/06 00:30:12;;;;;;;;;;;;;;;;;;5119173;27;19955;-80
2022/05/06 00:32:38;;;;;;;;;;;;;;;;;;5137092;27;20347;-80
2022/05/06 00:35:03;;;;;;;;;;;;;;;;;;5137554;27;19957;-80
2022/05/06 00:37:29;;;;;;;;;;;;;;;;;;5136981;27;19908;-80
2022/05/06 00:39:55;;;;;;;;;;;;;;;;;;5123196;27;19931;-79
2022/05/06 00:42:21;;;;;;;;;;;;;;;;;;5116864;28;19919;-80
2022/05/06 00:44:47;;;;;;;;;;;;;;;;;;5116237;28;20415;-80
2022/05/06 00:47:13;;;;;;;;;;;;;;;;;;5116841;28;19915;-80
2022/05/06 00:49:39;;;;;;;;;;;;;;;;;;5116287;28;19915;-80
2022/05/06 00:52:05;;;;;;;;;;;;;;;;;;5098208;28;20010;-79
2022/05/06 00:54:31;;;;;;;;;;;;;;;;;;5116136;28;19911;-80
2022/05/06 00:56:57;;;;;;;;;;;;;;;;;;5116628;28;19911;-80
2022/05/06 00:59:23;;;;;;;;;;;;;;;;;;5098229;28;20372;-80
2022/05/06 01:01:49;;;;;;;;;;;;;;;;;;5115896;28;19912;-80
2022/05/06 01:04:17;;;;;;;;;;;;;;;;;;5116422;28;20461;-80
2022/05/06 01:06:43;;;;;;;;;;;;;;;;;;5115801;28;19908;-80
2022/05/06 01:09:09;;;;;;;;;;;;;;;;;;5116077;28;19961;-80
2022/05/06 01:11:35;;;;;;;;;;;;;;;;;;5115833;28;19916;-80
2022/05/06 01:14:02;;;;;;;;;;;;;;;;;;5098207;28;19918;-80
2022/05/06 01:16:27;;;;;;;;;;;;;;;;;;5116221;28;19908;-79
2022/05/06 01:18:53;;;;;;;;;;;;;;;;;;5115856;28;19914;-80
2022/05/06 01:21:19;;;;;;;;;;;;;;;;;;5116396;28;20411;-80
2022/05/06 01:23:45;;;;;;;;;;;;;;;;;;5114717;28;19911;-80
2022/05/06 01:26:11;;;;;;;;;;;;;;;;;;5116059;28;20363;-80
2022/05/06 01:28:37;;;;;;;;;;;;;;;;;;5115329;28;19996;-79
2022/05/06 01:31:03;;;;;;;;;;;;;;;;;;5115057;27;19920;-80
2022/05/06 01:33:29;;;;;;;;;;;;;;;;;;5136567;27;19914;-80
2022/05/06 01:35:55;;;;;;;;;;;;;;;;;;5136400;27;19960;-80
2022/05/06 01:38:21;;;;;;;;;;;;;;;;;;5136356;27;19912;-80
2022/05/06 01:40:46;;;;;;;;;;;;;;;;;;5135430;27;19914;-80
2022/05/06 01:43:12;;;;;;;;;;;;;;;;;;5136397;27;20255;-80
2022/05/06 01:45:38;;;;;;;;;;;;;;;;;;5135305;27;19907;-79
2022/05/06 01:48:04;;;;;;;;;;;;;;;;;;5135951;27;20359;-80
2022/05/06 01:50:30;;;;;;;;;;;;;;;;;;5113679;28;19927;-79
2022/05/06 01:52:56;;;;;;;;;;;;;;;;;;5115592;28;20034;-79
2022/05/06 01:55:23;;;;;;;;;;;;;;;;;;5115466;28;20373;-80
2022/05/06 01:57:48;;;;;;;;;;;;;;;;;;5114890;28;20352;-79
2022/05/06 02:00:15;;;;;;;;;;;10.30;99.90;;;;;;5115359;28;19957;-79
2022/05/06 02:02:41;;;;;;;;;;;;;;;;;;5114769;28;19959;-79
2022/05/06 02:05:19;;;;;;;;;;;;;;;;;;5115532;28;20363;-80
2022/05/06 02:07:45;;;;;;;;;;;;;;;;;;5114709;28;19990;-79
2022/05/06 02:10:11;;;;;;;;;;;;;;;;;;5115104;28;19962;-79
2022/05/06 02:12:37;;;;;;;;;;;;;;;;;;5114432;28;20023;-79
2022/05/06 02:15:03;;;;;;;;;;;;;;;;;;5114798;28;19908;-79
2022/05/06 02:17:29;;;;;;;;;;;;;;;;;;5115142;28;20355;-79
2022/05/06 02:19:55;;;;;;;;;;;;;;;;;;5114489;28;19914;-79
2022/05/06 02:22:21;;;;;;;;;;;;;;;;;;5114987;28;19938;-80
2022/05/06 02:24:47;;;;;;;;;;;;;;;;;;5114626;28;20320;-79
2022/05/06 02:27:13;;;;;;;;;;;;;;;;;;5113663;28;19946;-80
2022/05/06 02:29:39;;;;;;;;;;;;;;;;;;5114251;28;19908;-79
2022/05/06 02:34:50;;;;;;;;;;;;;;;;;;5113063;28;19915;-80
2022/05/06 02:37:16;;;;;;;;;;;;;;;;;;5113474;28;19915;-80
2022/05/06 02:39:42;;;;;;;;;;;;;;;;;;5113702;28;19908;-80
2022/05/06 02:42:08;;;;;;;;;;;;;;;;;;5114598;28;19907;-80
2022/05/06 02:44:34;;;;;;;;;;;;;;;;;;5114906;28;20259;-80
2022/05/06 02:47:00;;;;;;;;;;;;;;;;;;5114476;28;19914;-80
2022/05/06 02:49:26;;;;;;;;;;;;;;;;;;5114448;28;19908;-80
2022/05/06 02:51:52;;;;;;;;;;;;;;;;;;5131616;27;19920;-80
2022/05/06 02:54:21;;;;;;;;;;;;;;;;;;5134844;27;19955;-81
2022/05/06 02:56:47;;;;;;;;;;;;;;;;;;5134204;27;19959;-81
2022/05/06 02:59:13;;;;;;;;;;;;;;;;;;5134736;27;19911;-80
2022/05/06 03:01:39;;;;;;;;;;;;;;;;;;5134120;27;19915;-80
2022/05/06 03:04:04;;;;;;;;;;;;;;;;;;5134787;27;19943;-80
2022/05/06 03:06:30;;;;;;;;;;;;;;;;;;5134625;27;19911;-80
2022/05/06 03:08:56;;;;;;;;;;;;;;;;;;5134019;27;20360;-80
2022/05/06 03:11:22;;;;;;;;;;;;;;;;;;5134592;27;20052;-80
2022/05/06 03:13:48;;;;;;;;;;;;;;;;;;5115569;27;19907;-80
2022/05/06 03:16:14;;;;;;;;;;;;;;;;;;5134444;27;19908;-80
2022/05/06 03:18:40;;;;;;;;;;;;;;;;;;5133846;27;19908;-80
2022/05/06 03:21:06;;;;;;;;;;;;;;;;;;5134168;27;19937;-80
2022/05/06 03:23:32;;;;;;;;;;;;;;;;;;5134388;27;19912;-80
2022/05/06 03:25:58;;;;;;;;;;;;;;;;;;5133722;27;19907;-80
2022/05/06 03:28:24;;;;;;;;;;;;;;;;;;5134233;27;20256;-80
2022/05/06 03:30:52;;;;;;;;;;;;;;;;;;5133580;27;19968;-80
2022/05/06 03:33:18;;;;;;;;;;;;;;;;;;5134221;27;19908;-81
2022/05/06 03:35:44;;;;;;;;;;;;;;;;;;5133587;27;19907;-81
2022/05/06 03:38:09;;;;;;;;;;;;;;;;;;5134193;27;19907;-78
2022/05/06 03:40:36;;;;;;;;;;;;;;;;;;5134121;27;19990;-78
2022/05/06 03:43:01;;;;;;;;;;;;;;;;;;5133477;27;19911;-78
2022/05/06 03:45:27;;;;;;;;;;;;;;;;;;5133781;27;19907;-78
2022/05/06 03:47:54;;;;;;;;;;;;;;;;;;5133331;27;19912;-78
2022/05/06 03:53:06;;;;;;;;;;;;;;;;;;5133735;28;20056;-79
2022/05/06 03:55:32;;;;;;;;;;;;;;;;;;5134017;28;19938;-79
2022/05/06 03:57:58;;;;;;;;;;;;;;;;;;5133415;28;19943;-78
2022/05/06 04:00:24;;;;;;;;;;;;;;;;;;5133917;28;19998;-79
2022/05/06 04:02:50;;;;;;;;;;;;;;;;;;5133311;28;20382;-79
2022/05/06 04:05:16;;;;;;;;;;;;;;;;;;5133767;28;19914;-79
2022/05/06 04:07:41;;;;;;;;;;;;;;;;;;5133560;28;20010;-79
2022/05/06 04:10:07;;;;;;;;;;;;;;;;;;5133556;28;19911;-79
2022/05/06 04:12:33;;;;;;;;;;;;;;;;;;5133798;28;19911;-78
2022/05/06 04:14:59;;;;;;;;;;;;;;;;;;5133214;28;19915;-78
2022/05/06 04:17:25;;;;;;;;;;;;;;;;;;5133798;28;20002;-78
2022/05/06 04:25:21;;;;;;;;;;;;;;;;;;5133505;28;19914;-78
2022/05/06 04:27:47;;;;;;;;;;;;;;;;;;5114656;28;19908;-78
2022/05/06 04:30:12;;;;;;;;;;;;;;;;;;5099021;28;19919;-78
2022/05/06 04:32:38;;;;;;;;;;;;;;;;;;5112784;28;19919;-78
2022/05/06 04:35:05;;;;;;;;;;;;;;;;;;5112186;28;20006;-78
2022/05/06 04:37:31;;;;;;;;;;;;;;;;;;5112913;28;19918;-78
2022/05/06 04:39:57;;;;;;;;;;;;;;;;;;5112439;28;19912;-78
2022/05/06 04:42:23;;;;;;;;;;;;;;;;;;5094706;28;20336;-78
2022/05/06 04:44:49;;;;;;;;;;;;;;;;;;5112381;28;19955;-78
2022/05/06 04:47:15;;;;;;;;;;;;;;;;;;5113328;28;19907;-78
2022/05/06 04:49:41;;;;;;;;;;;;;;;;;;5112494;28;19964;-78
2022/05/06 04:52:07;;;;;;;;;;;;;;;;;;5112746;28;19946;-78
2022/05/06 04:54:33;;;;;;;;;;;;;;;;;;5112772;28;20367;-78
2022/05/06 04:56:59;;;;;;;;;;;;;;;;;;5112242;28;19914;-78
2022/05/06 04:59:24;;;;;;;;;;;;;;;;;;5097197;28;19915;-78
2022/05/06 05:01:50;;;;;;;;;;;;;;;;;;5115950;28;19908;-78
2022/05/06 05:04:16;;;;;;;;;;;;;;;;;;5116501;28;20343;-78
2022/05/06 05:06:42;;;;;;;;;;;;;;;;;;5116808;28;19915;-79
2022/05/06 05:09:08;;;;;;;;;;;;;;;;;;5116433;28;19908;-78
2022/05/06 05:11:34;;;;;;;;;;;;;;;;;;5116376;28;19916;-78
2022/05/06 05:14:02;;;;;;;;;;;;;;;;;;5115733;28;19962;-78
2022/05/06 05:16:28;;;;;;;;;;;;;;;;;;5116233;28;19908;-78
2022/05/06 05:18:54;;;;;;;;;;;;;;;;;;5115590;28;20245;-78
2022/05/06 05:21:20;;;;;;;;;;;;;;;;;;5116133;28;19937;-78
2022/05/06 05:23:46;;;;;;;;;;;;;;;;;;5115380;28;20363;-78
2022/05/06 05:26:11;;;;;;;;;;;;;;;;;;5116075;28;20018;-77
2022/05/06 05:28:37;;;;;;;;;;;;;;;;;;5116000;28;19915;-77
2022/05/06 05:31:03;;;;;;;;;;;;;;;;;;5115341;28;20417;-77
2022/05/06 05:33:29;;;;;;;;;;;;;;;;;;5115362;28;20260;-77
2022/05/06 05:35:55;;;;;;;;;;;;;;;;;;5096411;28;19908;-76
2022/05/06 05:38:21;;;;;;;;;;;;;;;;;;5115396;28;19985;-76
2022/05/06 05:40:47;;;;;;;;;;;;;;;;;;5115272;28;20326;-75
2022/05/06 05:48:19;;;;;;;;;;;;;;;;;;5114834;28;19908;-74
2022/05/06 05:48:43;;;;;;;;;;;;;;;;;;5114943;28;20275;-78
2022/05/06 05:51:09;;;;;;;;;;;;;;;;;;5113788;28;20038;-76
2022/05/06 05:53:35;;;;;;;;;;;;;;;;;;5115115;28;19912;-76
2022/05/06 05:56:01;;;;;;;;;;;;;;;;;;5121589;27;19915;-79
2022/05/06 05:58:27;;;;;;;;;;;11.50;99.90;;;;;;5131179;27;19911;-75
2022/05/06 06:00:53;;;;;;;;;;;;;;;;;;5130517;27;19918;-73
2022/05/06 06:03:19;;;;;;;;;;;;;;;;;;5136015;27;19939;-77
2022/05/06 06:05:45;;;;;;;;;;;;;;;;;;5135770;27;19914;-74
2022/05/06 06:08:10;;;;;;;;;;;;;;;;;;5135154;27;19962;-77
2022/05/06 06:10:36;;;;;;;;;;;;;;;;;;5135644;27;19919;-75
2022/05/06 06:13:04;;;;;;;;;;;;;;;;;;5134686;27;19915;-74
2022/05/06 06:15:30;;;;;;;;;;;;;;;;;;5135684;27;19907;-74
2022/05/06 06:17:55;;;;;;;;;;;;;;;;;;5135257;27;19914;-71
2022/05/06 06:20:23;;;;;;;;;;;;;;;;;;5135470;27;19912;-71
2022/05/06 06:22:49;;;;;;;;;;;;;;;;;;5134885;27;19915;-80
2022/05/06 06:25:15;;;;;;;;;;;;;;;;;;5131369;27;19952;-78
2022/05/06 06:27:41;;;;;;;;;;;;;;;;;;5124100;27;19972;-76
2022/05/06 06:30:08;;;;;;;;;;;;;;;;;;5122982;27;20117;-75
2022/05/06 06:32:33;;;;;;;;;;;;;;;;;;5124627;27;19916;-75
2022/05/06 06:34:59;;;;;;;;;;;;;;;;;;5125845;27;20328;-75
2022/05/06 06:37:27;;;;;;;;;;;;;;;;;;5125936;27;19907;-75
2022/05/06 06:39:53;;;;;;;;;;;;;;;;;;5122649;27;20371;-75
2022/05/06 06:42:19;;;;;;;;;;;;;;;;;;5121576;27;19960;-76
2022/05/06 06:44:45;;;;;;;;;;;;;;;;;;5114911;28;19912;-75
2022/05/06 06:47:10;;;;;;;;;;;12.00;99.90;;;;;;5113254;27;19911;-75
2022/05/06 06:49:36;;;;;;;;;;;;;;;;;;5113778;28;19973;-75
2022/05/06 06:52:05;;;;;;;;;;;11.80;99.90;;;;;;5113051;28;19931;-75
2022/05/06 06:54:31;;;;;;;;;;;;;;;;;;5113816;28;19923;-75
2022/05/06 06:56:57;;;;;;;;;;;;;;;;;;5131768;27;19911;-75
2022/05/06 06:59:23;;;;;;;;;;;;;;;;;;5120356;27;19908;-75
2022/05/06 07:01:48;;;;;;;;;;;;;;;;;;5120187;27;20247;-75
2022/05/06 07:04:14;;;;;;;;;;;;;;;;;;5121543;27;19914;-75
2022/05/06 07:12:10;;;;;;;;;;;;;;;;;;5120781;27;20025;-75
2022/05/06 07:14:36;;;;;;;;;;;;;;;;;;5124615;27;19919;-75
2022/05/06 07:17:02;;;;;;;;;;;12.10;99.90;;;;;;5120879;27;20303;-75
2022/05/06 07:19:28;;;;;;;;;;;;;;;;;;5117989;27;20003;-78
2022/05/06 07:21:54;;;;;;;;;;;;;;;;;;5103124;27;19962;-75
2022/05/06 07:24:20;;;;;;;;;;;;;;;;;;5117542;27;19916;-75
2022/05/06 07:26:46;;;;;;;;;;;;;;;;;;5112974;28;20359;-75
2022/05/06 07:29:12;;;;;;;;;;;;;;;;;;5112294;28;19972;-76
2022/05/06 07:31:38;;;;;;;;;;;11.80;99.90;;;;;;5113666;28;19923;-75
2022/05/06 07:34:03;;;;;;;;;;;;;;;;;;5112983;28;19908;-74
2022/05/06 07:36:29;;;;;;;;;;;;;;;;;;5113705;28;19915;-74
2022/05/06 07:38:55;;;;;;;;;;;;;;;;;;5112995;28;20280;-74
2022/05/06 07:41:21;;;;;;;;;;;;;;;;;;5113309;28;19935;-74
2022/05/06 07:43:48;;;;;;;;;;;;;;;;;;5113582;28;19908;-74
2022/05/06 07:46:14;;;;;;;;;;;;;;;;;;5112846;28;19907;-74
2022/05/06 07:48:40;;;;;;;;;;;;;;;;;;5113147;28;19912;-74
2022/05/06 07:51:06;;;;;;;;;;;;;;;;;;5112175;28;19927;-76
2022/05/06 07:53:31;;;;;;;;;;;;;;;;;;5095091;28;20010;-75
2022/05/06 07:55:57;;;;;;;;;;;;;;;;;;5113160;28;19935;-75
2022/05/06 07:58:23;;;;;;;;;;;;;;;;;;5113393;28;19908;-75
2022/05/06 08:00:50;;;;;;;;;;;;;;;;;;5113430;28;20374;-75
2022/05/06 08:06:00;;;;;;;;;;;12.70;99.90;;;;;;5112546;28;19953;-75
2022/05/06 08:08:26;;;;;;;;;;;;;;;;;;5113379;28;19912;-75
2022/05/06 08:10:52;;;;;;;;;;;;;;;;;;5113261;28;20348;-75
2022/05/06 08:13:18;;;;;;;;;;;12.40;99.90;;;;;;5113314;28;20381;-75
2022/05/06 08:15:44;;;;;;;;;;;;;;;;;;5113244;28;19915;-75
2022/05/06 08:18:10;;;;;;;;;;;;;;;;;;5112847;28;20343;-75
2022/05/06 08:20:35;;;;;;;;;;;;;;;;;;5113304;28;19915;-75
2022/05/06 08:23:01;;;;;;;;;;;13.40;99.90;;;;;;5112635;28;20011;-75
2022/05/06 08:25:27;;;;;;;;;;;;;;;;;;5113209;28;19915;-75
2022/05/06 08:27:53;;;;;;;;;;;;;;;;;;5113175;28;19914;-75
2022/05/06 08:30:18;;;;;;;;;;;12.90;99.90;;;;;;5113140;28;19915;-75
2022/05/06 08:32:44;;;;;;;;;;;;;;;;;;5113308;28;19951;-74
2022/05/06 08:35:10;;;;;;;;;;;;;;;;;;5116204;28;19908;-75
2022/05/06 08:37:36;;;;;;;;;;;;;;;;;;5117150;28;19908;-75
2022/05/06 08:40:02;;;;;;;;;;;13.90;99.90;;;;;;5116155;28;20332;-75
2022/05/06 08:42:29;;;;;;;;;;;;;;;;;;5116976;28;19951;-75
2022/05/06 08:53:09;;;;;;;;;;;;;;;;;;5115979;28;20378;-75
2022/05/06 08:55:35;;;;;;;;;;;;;;;;;;5116737;28;19911;-75
2022/05/06 08:58:01;;;;;;;;;;;14.30;96.30;;;;;;5115975;28;19908;-75
2022/05/06 09:00:27;;;;;;;;;;;14.30;99.30;;;;;;5116293;28;19914;-75
2022/05/06 09:02:53;;;;;;;;;;;14.50;96.60;;;;;;5116592;28;19988;-75
2022/05/06 09:05:19;;;;;;;;;;;14.60;98.50;;;;;;5115923;28;19908;-75
2022/05/06 09:07:46;;;;;;;;;;;;;;;;;;5116331;28;19907;-75
2022/05/06 09:10:13;;;;;;;;;;;;;;;;;;5115789;28;20373;-75
2022/05/06 09:12:41;;;;;;;;;;;;;;;;;;5116303;28;19958;-75
2022/05/06 09:17:51;;;;;;;;;;;;;;;;;;5116090;28;19919;-75
2022/05/06 09:20:17;;;;;;;;;;;;;;;;;;5115725;28;20363;-75
2022/05/06 09:22:43;;;;;;;;;;;;;;;;;;5115865;28;19919;-75
2022/05/06 09:25:09;;;;;;;;;;;;;;;;;;5115526;28;19915;-75
2022/05/06 09:27:35;;;;;;;;;;;;;;;;;;5116461;28;19922;-75
2022/05/06 09:30:01;;;;;;;;;;;;;;;;;;5115403;28;19908;-75
2022/05/06 09:32:27;;;;;;;;;;;;;;;;;;5115744;28;19912;-75
2022/05/06 09:34:53;;;;;;;;;;;;;;;;;;5125110;27;19999;-75
2022/05/06 09:37:18;;;;;;;;;;;;;;;;;;5117917;27;19915;-75
2022/05/06 09:39:44;;;;;;;;;;;;;;;;;;5115931;28;19970;-75
2022/05/06 09:42:10;;;;;;;;;;;16.40;63.90;;;;;;5115188;28;19908;-75
2022/05/06 09:44:35;;;;;;;;;;;17.30;68.80;;;;;;5097540;28;20316;-73
2022/05/06 09:47:08;;;;;;;;;;;16.30;60.60;;;;;;5120418;27;20258;-73
2022/05/06 09:49:36;;;;;;;;;;;;;;;;;;5123376;27;20296;-73
2022/05/06 09:52:01;;;;;;;;;;;;;;;;;;5135133;27;19927;-73
2022/05/06 09:54:28;;;;;;;;;;;;;;;;;;5135747;27;19907;-72
2022/05/06 09:56:54;;;;;;;;;;;;;;;;;;5135882;27;19911;-73
2022/05/06 09:59:20;;;;;;;;;;;16.80;34.40;;;;;;5135369;27;19904;-72
2022/05/06 10:01:46;;;;;;;;;;;;;;;;;;5133030;27;20374;-73
2022/05/06 10:04:11;;;;;;;;;;;;;;;;;;5120003;27;20340;-72
2022/05/06 10:06:37;;;;;;;;;;;;;;;;;;5115259;28;20029;-72
2022/05/06 10:09:03;;;;;;;;;;;;;;;;;;5114776;28;19911;-72
2022/05/06 10:11:29;;;;;;;;;;;;;;;;;;5121730;27;20282;-73
2022/05/06 10:13:59;;;;;;;;;;;;;;;;;;5121252;27;19911;-72
2022/05/06 10:16:25;;;;;;;;;;;;;;;;;;5121529;27;19908;-71
2022/05/06 10:18:53;;;;;;;;;;;;;;;;;;5123864;27;19911;-72
2022/05/06 10:21:18;;;;;;;;;;;;;;;;;;5124508;27;20366;-73
2022/05/06 10:23:45;;;;;;;;;;;;;;;;;;5123246;27;19908;-72
2022/05/06 10:26:11;;;;;;;;;;;;;;;;;;5123152;27;19910;-75
2022/05/06 10:34:06;;;;;;;;;;;;;;;;;;5121820;27;20018;-75
2022/05/06 10:36:32;;;;;;;;;;;;;;;;;;5122816;27;19907;-74
2022/05/06 10:38:58;;;;;;;;;;;;;;;;;;5124164;27;20403;-76
2022/05/06 10:41:24;;;;;;;;;;;;;;;;;;5121397;27;19930;-76
2022/05/06 10:43:51;;;;;;;;;;;;;;;;;;5119545;27;20199;-77
2022/05/06 10:46:17;;;;;;;;;;;;;;;;;;5101929;27;20285;-78
2022/05/06 10:48:42;;;;;;;;;;;;;;;;;;5118120;27;20386;-75
2022/05/06 10:51:08;;;;;;;;;;;;;;;;;;5117981;27;19930;-74
2022/05/06 10:53:34;;;;;;;;;;;;;;;;;;5121151;27;19972;-75
2022/05/06 10:56:00;;;;;;;;;;;;;;;;;;5130196;27;19934;-74
2022/05/06 10:58:27;;;;;;;;;;;;;;;;;;5124374;27;20441;-74
2022/05/06 11:00:53;;;;;;;;;;;;;;;;;;5098919;28;20356;-74
2022/05/06 11:03:23;;;;;;;;;;;;;;;;;;5110350;28;19938;-75
2022/05/06 11:05:49;;;;;;;;;;;;;;;;;;5124514;27;20373;-75
2022/05/06 11:08:19;;;;;;;;;;;;;;;;;;5118868;27;19914;-74
2022/05/06 11:10:45;;;;;;;;;;;;;;;;;;5110773;28;19923;-74
2022/05/06 11:13:11;;;;;;;;;;;;;;;;;;5118381;27;20294;-75
2022/05/06 11:15:37;;;;;;;;;;;;;;;;;;5101303;28;19962;-74
2022/05/06 11:18:04;;;;;;;;;;;;;;;;;;5091517;28;19915;-74
2022/05/06 11:20:31;;;;;;;;;;;;;;;;;;5109734;28;20051;-74
2022/05/06 11:22:57;;;;;;;;;;;;;;;;;;5110560;28;20430;-74
2022/05/06 11:25:23;;;;;;;;;;;;;;;;;;5113971;27;20019;-74
2022/05/06 11:27:49;;;;;;;;;;;;;;;;;;5117592;27;20417;-74
2022/05/06 11:30:16;;;;;;;;;;;;;;;;;;5119498;27;19912;-74
2022/05/06 11:32:42;;;;;;;;;;;;;;;;;;5119129;27;20007;-74
2022/05/06 11:35:08;;;;;;;;;;;;;;;;;;5121570;27;19968;-74
2022/05/06 11:37:34;;;;;;;;;;;;;;;;;;5123583;27;19914;-74
2022/05/06 11:42:44;;;;;;;;;;;;;;;;;;5122275;27;20275;-75
2022/05/06 11:47:55;;;;;;;;;;;;;;;;;;5123935;27;19911;-74
2022/05/06 11:50:21;;;;;;;;;;;;;;;;;;5133176;27;19915;-74
2022/05/06 11:52:47;;;;;;;;;;;;;;;;;;5114897;27;19915;-74
2022/05/06 11:55:12;;;;;;;;;;;;;;;;;;5120647;28;19911;-74
2022/05/06 11:57:38;;;;;;;;;;;;;;;;;;5095301;28;20389;-74
2022/05/06 12:00:04;;;;;;;;;;;;;;;;;;5112752;28;19903;-74
2022/05/06 12:02:30;;;;;;;;;;;;;;;;;;5118723;28;20367;-74
2022/05/06 12:04:56;;;;;;;;;;;;;;;;;;5113940;28;19908;-68
2022/05/06 12:07:22;;;;;;;;;;;;;;;;;;5115090;27;20380;-68
2022/05/06 12:09:48;;;;;;;;;;;;;;;;;;5126289;27;19958;-67
2022/05/06 12:12:14;;;;;;;;;;;;;;;;;;5133346;27;20263;-67
2022/05/06 12:14:40;;;;;;;;;;;;;;;;;;5125552;27;20007;-67
2022/05/06 12:17:06;;;;;;;;;;;;;;;;;;5120558;27;19914;-67
2022/05/06 12:19:32;;;;;;;;;;;;;;;;;;5121368;27;19916;-67
2022/05/06 12:21:57;;;;;;;;;;;;;;;;;;5124471;27;19916;-67
2022/05/06 12:24:23;;;;;;;;;;;;;;;;;;5098406;28;20407;-67
2022/05/06 12:26:49;;;;;;;;;;;;;;;;;;5117570;27;19991;-69
2022/05/06 12:29:15;;;;;;;;;;;;;;;;;;5131614;27;20371;-69
2022/05/06 12:31:41;;;;;;;;;;;;;;;;;;5098793;28;19916;-69
2022/05/06 12:34:07;;;;;;;;;;;;;;;;;;5117004;27;19952;-78
2022/05/06 12:36:33;;;;;;;;;;;;;;;;;;5116437;28;19950;-77
2022/05/06 12:38:59;;;;;;;;;;;;;;;;;;5116799;28;20070;-75
2022/05/06 12:41:28;;;;;;;;;;;;;;;;;;5116399;28;19923;-75
2022/05/06 12:43:54;;;;;;;;;;;;;;;;;;5116345;28;19908;-75
2022/05/06 12:46:20;;;;;;;;;;;;;;;;;;5097333;28;20388;-76
2022/05/06 12:51:30;;;;;;;;;;;;;;;;;;5115709;28;19927;-74
2022/05/06 12:53:56;;;;;;;;;;;;;;;;;;5116437;28;19916;-76
2022/05/06 12:56:22;;;;;;;;;;;;;;;;;;5116137;28;19918;-75
2022/05/06 12:58:48;;;;;;;;;;;;;;;;;;5116618;28;19915;-75
2022/05/06 13:01:14;;;;;;;;;;;;;;;;;;5116256;28;19990;-75
2022/05/06 13:03:39;;;;;;;;;;;;;;;;;;5116557;28;19915;-75
2022/05/06 13:06:05;;;;;;;;;;;;;;;;;;5116229;28;20328;-76
2022/05/06 13:08:31;;;;;;;;;;;;;;;;;;5116435;28;19912;-76
2022/05/06 13:10:57;;;;;;;;;;;;;;;;;;5116437;28;20391;-75
2022/05/06 13:13:23;;;;;;;;;;;;;;;;;;5115369;28;19907;-74
2022/05/06 13:15:49;;;;;;;;;;;;;;;;;;5116673;28;19908;-74
2022/05/06 13:18:15;;;;;;;;;;;;;;;;;;5115380;28;19908;-76
2022/05/06 13:20:41;;;;;;;;;;;;;;;;;;5115640;28;19975;-74
2022/05/06 13:23:07;;;;;;;;;;;;;;;;;;5116132;28;19919;-74
2022/05/06 13:25:33;;;;;;;;;;;;;;;;;;5115904;28;19912;-75
2022/05/06 13:27:58;;;;;;;;;;;;;;;;;;5115862;28;19914;-74
2022/05/06 13:30:24;;;;;;;;;;;;;;;;;;5114796;28;19915;-75
2022/05/06 13:32:50;;;;;;;;;;;;;;;;;;5115498;28;20018;-75
2022/05/06 13:35:16;;;;;;;;;;;;;;;;;;5114990;28;20273;-75
2022/05/06 13:37:42;;;;;;;;;;;;;;;;;;5116209;28;19912;-75
2022/05/06 13:40:08;;;;;;;;;;;;;;;;;;5115917;28;20256;-75
2022/05/06 13:42:34;;;;;;;;;;;;;;;;;;5115915;28;19916;-75
2022/05/06 13:45:00;;;;;;;;;;;;;;;;;;5116079;28;20317;-75
2022/05/06 13:47:26;;;;;;;;;;;;;;;;;;5115130;28;19915;-75
2022/05/06 13:49:53;;;;;;;;;;;;;;;;;;5115397;28;20344;-74
2022/05/06 13:52:19;;;;;;;;;;;;;;;;;;5115020;28;19977;-75
2022/05/06 13:54:45;;;;;;;;;;;;;;;;;;5115557;28;19939;-75
2022/05/06 13:59:55;;;;;;;;;;;;;;;;;;5115420;28;20263;-75
2022/05/06 14:02:21;;;;;;;;;;;;;;;;;;5114757;28;19903;-74
2022/05/06 14:04:47;;;;;;;;;;;;;;;;;;5115382;28;19903;-75
2022/05/06 14:07:13;;;;;;;;;;;;;;;;;;5114751;28;19960;-75
2022/05/06 14:09:39;;;;;;;;;;;;;;;;;;5097073;28;19925;-75
2022/05/06 14:12:04;;;;;;;;;;;;;;;;;;5115192;28;19912;-75
2022/05/06 14:14:30;;;;;;;;;;;;;;;;;;5114693;28;20203;-75
2022/05/06 14:16:56;;;;;;;;;;;;;;;;;;5115222;28;20342;-75
2022/05/06 14:19:22;;;;;;;;;;;;;;;;;;5114594;28;19961;-75
2022/05/06 14:21:48;;;;;;;;;;;;;;;;;;5115378;28;19917;-75
2022/05/06 14:24:14;;;;;;;;;;;;;;;;;;5114566;28;19951;-74
2022/05/06 14:26:40;;;;;;;;;;;24.30;1.00;;;;;;5114840;28;20351;-75
2022/05/06 14:29:05;;;;;;;;;;;24.30;1.00;;;;;;5115068;28;19958;-75
2022/05/06 14:31:31;;;;;;;;;;;23.90;1.00;;;;;;5112981;28;20242;-74
2022/05/06 14:33:56;;;;;;;;;;;;;;;;;;5096572;28;19910;-75
2022/05/06 14:36:22;;;;;;;;;;;;;;;;;;5114268;28;19908;-75
2022/05/06 14:38:48;;;;;;;;;;;;;;;;;;5114876;28;20275;-75
2022/05/06 14:41:14;;;;;;;;;;;;;;;;;;5113875;28;19903;-76
2022/05/06 14:43:40;;;;;;;;;;;;;;;;;;5114694;28;20002;-75
2022/05/06 14:46:07;;;;;;;;;;;;;;;;;;5114622;28;19911;-75
2022/05/06 14:48:33;;;;;;;;;;;;;;;;;;5113981;28;20399;-75
2022/05/06 14:50:59;;;;;;;;;;;;;;;;;;5114317;28;19922;-74
2022/05/06 14:53:25;;;;;;;;;;;;;;;;;;5114004;28;19914;-75
2022/05/06 14:55:51;;;;;;;;;;;;;;;;;;5114486;28;20002;-75
2022/05/06 14:58:17;;;;;;;;;;;;;;;;;;5113809;28;19957;-74
2022/05/06 15:00:43;;;;;;;;;;;;;;;;;;5114646;28;19904;-75
2022/05/06 15:03:09;;;;;;;;;;;;;;;;;;5114163;28;19904;-75
2022/05/06 15:05:35;;;;;;;;;;;;;;;;;;5113947;28;19908;-75
2022/05/06 15:08:01;;;;;;;;;;;;;;;;;;5114193;28;20352;-75
2022/05/06 15:10:26;;;;;;;;;;;;;;;;;;5113574;28;19908;-76
2022/05/06 15:12:53;;;;;;;;;;;;;;;;;;5113797;28;19915;-75
2022/05/06 15:15:19;;;;;;;;;;;;;;;;;;5113569;28;19911;-74
2022/05/06 15:17:44;;;;;;;;;;;;;;;;;;5114083;28;19904;-74
2022/05/06 15:20:10;;;;;;;;;;;;;;;;;;5114392;28;20331;-74
2022/05/06 15:22:36;;;;;;;;;;;;;;;;;;5113409;28;20036;-73
2022/05/06 15:25:02;;;;;;;;;;;;;;;;;;5113898;28;19912;-74
2022/05/06 15:27:28;;;;;;;;;;;;;;;;;;5113362;28;19990;-73
2022/05/06 15:29:54;;;;;;;;;;;;;;;;;;5113830;28;20286;-74
2022/05/06 15:32:20;;;;;;;;;;;;;;;;;;5113167;28;20242;-74
2022/05/06 15:34:46;;;;;;;;;;;;;;;;;;5113820;28;20017;-74
2022/05/06 15:37:12;;;;;;;;;;;;;;;;;;5113782;28;19969;-74
2022/05/06 15:39:38;;;;;;;;;;;;;;;;;;5113164;28;19903;-73
2022/05/06 15:42:04;;;;;;;;;;;;;;;;;;5112983;28;19949;-73
2022/05/06 15:44:29;;;;;;;;;;;;;;;;;;5112416;28;19904;-73
2022/05/06 15:46:55;;;;;;;;;;;;;;;;;;5113135;28;20022;-73
2022/05/06 15:49:21;;;;;;;;;;;;;;;;;;5112934;28;19954;-72
2022/05/06 15:51:48;;;;;;;;;;;;;;;;;;5113431;28;19962;-73
2022/05/06 16:50:32;;;;;;;;;;;;;;;;;;5151118;27;20343;-72
2022/05/06 16:52:58;;;;;;;;;;;23.70;1.00;;;;;;5146221;27;19914;-72
2022/05/06 16:55:23;;;;;;;;;;;23.80;1.00;;;;;;5122633;27;19912;-71
2022/05/06 16:57:49;;;;;;;;;;;23.20;1.00;;;;;;5120767;28;19904;-70
2022/05/06 17:00:16;;;;;;;;;;;23.70;1.00;;;;;;5119189;28;19943;-71
2022/05/06 17:02:42;;;;;;;;;;;;;;;;;;5100040;28;19949;-70
2022/05/06 17:05:08;;;;;;;;;;;;;;;;;;5122026;27;19908;-71
2022/05/06 17:07:34;;;;;;;;;;;;;;;;;;5122269;28;19908;-72
2022/05/06 17:10:00;;;;;;;;;;;;;;;;;;5101274;28;19912;-72
2022/05/06 17:12:26;;;;;;;;;;;;;;;;;;5117578;28;19916;-73
2022/05/06 17:14:52;;;;;;;;;;;;;;;;;;5123791;28;19968;-72
2022/05/06 17:17:18;;;;;;;;;;;;;;;;;;5112114;28;19908;-72
2022/05/06 17:19:44;;;;;;;;;;;;;;;;;;5129414;28;20065;-72
2022/05/06 17:22:11;;;;;;;;;;;;;;;;;;5123843;28;20359;-72
2022/05/06 17:24:37;;;;;;;;;;;;;;;;;;5119488;28;19915;-72
2022/05/06 17:27:03;;;;;;;;;;;;;;;;;;5130983;28;19911;-73
2022/05/06 17:29:28;;;;;;;;;;;;;;;;;;5129895;28;20408;-72
2022/05/06 17:31:54;;;;;;;;;;;;;;;;;;5130566;28;20267;-73
2022/05/06 17:34:20;;;;;;;;;;;;;;;;;;5130550;28;19960;-72
2022/05/06 17:36:46;;;;;;;;;;;;;;;;;;5129898;28;19912;-72
2022/05/06 17:39:12;;;;;;;;;;;;;;;;;;5130440;28;19911;-72
2022/05/06 17:41:39;;;;;;;;;;;;;;;;;;5111505;28;19909;-72
2022/05/06 17:44:05;;;;;;;;;;;;;;;;;;5130104;28;20045;-72
2022/05/06 17:46:31;;;;;;;;;;;;;;;;;;5130104;28;20306;-72
2022/05/06 17:48:58;;;;;;;;;;;;;;;;;;5130030;28;20301;-73
2022/05/06 17:51:23;;;;;;;;;;;;;;;;;;5129699;28;19970;-73
2022/05/06 17:53:49;;;;;;;;;;;;;;;;;;5129946;28;20367;-73
2022/05/06 17:56:15;;;;;;;;;;;;;;;;;;5129844;28;19912;-72
2022/05/06 17:58:42;;;;;;;;;;;21.40;1.00;;;;;;5131564;27;20411;-73
2022/05/06 18:01:16;;;;;;;;;;;21.80;1.00;;;;;;5120080;27;19960;-73
2022/05/06 18:03:42;;;;;;;;;;;;;;;;;;5136477;27;19990;-73
2022/05/06 18:06:08;;;;;;;;;;;;;;;;;;5118418;27;19907;-73
2022/05/06 18:08:34;;;;;;;;;;;;;;;;;;5133289;27;19945;-73
2022/05/06 18:11:00;;;;;;;;;;;;;;;;;;5116216;28;19911;-73